Pires Coelho — CUPM6 — position and weather

sailwx.info

Track history (hours):
 
Tides and Currents Weather Stations Pressure Air Temp Water Temp Dewpoint Dewpoint Depression Visibility Wind Speed Wind Dir Waves Ship Positions

Pires Coelho

Last reported at 2014-Jul-24 22:26 UTC. Time now 2014-Jul-28 16:27 UTC.
Position N 37°08' W 008°32'.

Length 27 m.

Type: Ship. MMSI: 263236000.

Date/timePositionNaut miles runAvg speedWind from/ knotsBaromVisibWave heightAir tempDewpointWater temp
2014-Jul-24 22:26N 37°08' W 008°32'0 0.0
2014-Jul-24 21:32N 37°08' W 008°32'0 0.0
2014-Jul-24 20:30N 37°08' W 008°32'7 7.0
2014-Jul-24 19:33N 37°02' W 008°27'9 8.9
2014-Jul-24 18:33N 36°55' W 008°20'8 8.4
2014-Jul-24 17:33N 36°49' W 008°14'2 1.7
2014-Jul-24 16:33N 36°49' W 008°12'3 2.9
2014-Jul-24 15:33N 36°49' W 008°09'4 3.0
2014-Jul-24 14:18N 36°50' W 008°04'3 1.4
2014-Jul-24 12:20N 36°49' W 008°07'2 2.9
2014-Jul-24 11:33N 36°49' W 008°10'4 3.0
2014-Jul-24 10:03N 36°48' W 008°16'3 3.1
2014-Jul-24 09:13N 36°48' W 008°19'1 2.3
2014-Jul-24 08:34N 36°48' W 008°17'3 3.1
2014-Jul-24 07:33N 36°48' W 008°13'3 3.1
2014-Jul-24 06:34N 36°49' W 008°09'3 3.1
2014-Jul-24 05:32N 36°49' W 008°05'1 0.9
2014-Jul-24 04:31N 36°48' W 008°05'3 3.1
2014-Jul-24 03:33N 36°49' W 008°02'3 3.0
2014-Jul-24 02:29N 36°50' W 007°58'5 1.6
2014-Jul-23 23:33N 36°49' W 008°04'3 2.9
2014-Jul-23 22:21N 36°48' W 008°08'3 2.9
2014-Jul-23 21:16N 36°47' W 008°12'3 3.6
2014-Jul-23 20:33N 36°48' W 008°15'2 1.9
2014-Jul-23 19:33N 36°48' W 008°12'3 3.0
2014-Jul-23 18:34N 36°49' W 008°09'1 1.1
2014-Jul-23 17:32N 36°49' W 008°07'3 2.9
2014-Jul-23 16:34N 36°48' W 008°11'3 3.0
2014-Jul-23 15:34N 36°48' W 008°14'3 3.1
2014-Jul-23 14:31N 36°48' W 008°18'6 2.6
2014-Jul-23 12:17N 36°49' W 008°26'2 3.0
2014-Jul-23 11:33N 36°49' W 008°28'5 4.1
2014-Jul-23 10:21N 36°49' W 008°34'2 2.1
2014-Jul-23 09:32N 36°49' W 008°36'3 2.9
2014-Jul-23 08:33N 36°49' W 008°40'3 2.9
2014-Jul-23 07:32N 36°49' W 008°44'4 2.9
2014-Jul-23 06:18N 36°50' W 008°48'11 6.6
2014-Jul-23 04:33N 36°49' W 009°02'9 4.2
2014-Jul-23 02:20N 36°49' W 009°14'2 2.9
2014-Jul-23 01:33N 36°52' W 009°14'3 2.8
2014-Jul-23 00:33N 36°54' W 009°12'3 2.9
2014-Jul-22 23:33N 36°57' W 009°10'3 2.6
2014-Jul-22 22:27N 36°60' W 009°10'19 8.7
2014-Jul-22 20:13N 37°19' W 009°10'1 1.6
2014-Jul-22 19:33N 37°20' W 009°10'3 2.7
2014-Jul-22 18:30N 37°23' W 009°09'3 2.9
2014-Jul-22 17:33N 37°26' W 009°10'3 2.7
2014-Jul-22 16:33N 37°28' W 009°09'0 0.1
2014-Jul-22 15:33N 37°28' W 009°09'3 2.8
2014-Jul-22 14:31N 37°25' W 009°09'3 3.1
2014-Jul-22 13:33N 37°22' W 009°09'2 2.0
2014-Jul-22 12:33N 37°24' W 009°10'3 2.8
2014-Jul-22 11:28N 37°27' W 009°09'1 1.4
2014-Jul-22 10:32N 37°28' W 009°08'2 2.0
2014-Jul-22 09:33N 37°27' W 009°07'3 2.8
2014-Jul-22 08:33N 37°24' W 009°08'1 1.0
2014-Jul-22 07:33N 37°25' W 009°08'3 2.9
2014-Jul-22 06:33N 37°28' W 009°08'6 6.1
2014-Jul-22 05:33N 37°34' W 009°07'10 9.6
2014-Jul-22 04:32N 37°43' W 009°07'9 9.4
2014-Jul-22 03:33N 37°52' W 009°07'9 9.1
2014-Jul-22 02:33N 38°02' W 009°07'9 9.3
2014-Jul-22 01:33N 38°11' W 009°06'10 9.6
2014-Jul-22 00:33N 38°21' W 009°06'6 5.4
2014-Jul-21 23:27N 38°26' W 009°07'0 0.0
2014-Jul-21 22:32N 38°26' W 009°07'5 5.3
2014-Jul-21 21:33N 38°24' W 009°13'9 9.5
2014-Jul-21 20:33N 38°29' W 009°23'3 9.5
2014-Jul-21 20:13N 38°31' W 009°27'6 9.6
2014-Jul-21 19:33N 38°34' W 009°33'2 2.1
2014-Jul-21 18:33N 38°35' W 009°36'3 2.8
2014-Jul-21 17:33N 38°33' W 009°33'3 2.9
2014-Jul-21 16:33N 38°32' W 009°30'1 1.4
2014-Jul-21 15:33N 38°33' W 009°31'3 3.0
2014-Jul-21 14:33N 38°34' W 009°34'3 3.0
2014-Jul-21 13:34N 38°37' W 009°37'28 0.7
2014-Jul-20 00:33N 38°10' W 009°27'10 9.8
2014-Jul-19 23:33N 38°01' W 009°23'10 9.7
2014-Jul-19 22:33N 37°52' W 009°20'9 9.5
2014-Jul-19 21:33N 37°42' W 009°18'9 8.9
2014-Jul-19 20:33N 37°34' W 009°14'42 3.5
2014-Jul-19 08:32N 37°08' W 008°32'0 0.0
2014-Jul-19 07:32N 37°08' W 008°32'0 0.0
2014-Jul-19 06:32N 37°08' W 008°32'0 0.0
2014-Jul-19 05:23N 37°08' W 008°32'0 0.0
2014-Jul-19 04:20N 37°08' W 008°32'0 0.0
2014-Jul-19 03:26N 37°08' W 008°32'0 0.0
2014-Jul-19 02:25N 37°08' W 008°32'0 0.0
2014-Jul-19 01:25N 37°08' W 008°32'0 0.0
2014-Jul-19 00:25N 37°08' W 008°32'0 0.0
2014-Jul-18 23:33N 37°08' W 008°32'0 0.0
2014-Jul-18 22:28N 37°08' W 008°32'0 0.0
2014-Jul-18 21:29N 37°08' W 008°32'0 0.0
2014-Jul-18 20:30N 37°08' W 008°32'0 0.0
2014-Jul-18 19:26N 37°08' W 008°32'0 0.0
2014-Jul-18 18:29N 37°08' W 008°32'0 0.0
2014-Jul-18 17:25N 37°08' W 008°32'0 0.0
2014-Jul-18 16:26N 37°08' W 008°32'0 0.2
2014-Jul-18 15:33N 37°08' W 008°32'0 0.0
2014-Jul-18 14:30N 37°08' W 008°32'0 0.0
2014-Jul-18 13:33N 37°08' W 008°32'0 0.0
2014-Jul-18 12:27N 37°08' W 008°32'0 0.0
2014-Jul-18 10:29N 37°08' W 008°32'0 0.0
2014-Jul-18 09:33N 37°08' W 008°32'0 0.0
2014-Jul-18 08:33N 37°08' W 008°32'0 0.0
2014-Jul-18 07:32N 37°08' W 008°32'0 0.1
2014-Jul-18 06:27N 37°08' W 008°32'0 0.0
2014-Jul-18 05:31N 37°08' W 008°32'0 0.0
2014-Jul-18 04:31N 37°08' W 008°32'0 0.0
2014-Jul-18 03:32N 37°08' W 008°32'0 0.0
2014-Jul-18 02:24N 37°08' W 008°32'0 0.0
2014-Jul-18 01:31N 37°08' W 008°32'0 0.0
2014-Jul-18 00:28N 37°08' W 008°32'0 0.0
2014-Jul-17 23:27N 37°08' W 008°32'0 0.0
2014-Jul-17 22:32N 37°08' W 008°32'0 0.0
2014-Jul-17 21:33N 37°08' W 008°32'0 0.0
2014-Jul-17 20:29N 37°08' W 008°32'1 1.4
2014-Jul-17 19:33N 37°07' W 008°32'10 9.9
2014-Jul-17 18:33N 36°57' W 008°31'8 7.8
2014-Jul-17 17:33N 36°49' W 008°32'3 2.8
2014-Jul-17 16:32N 36°52' W 008°31'1 0.6
2014-Jul-17 15:33N 36°52' W 008°30'3 2.8
2014-Jul-17 14:34N 36°50' W 008°32'2 2.5
2014-Jul-17 13:34N 36°49' W 008°29'2 1.8
2014-Jul-17 12:31N 36°48' W 008°27'2 1.7
2014-Jul-17 11:34N 36°48' W 008°25'3 2.9
2014-Jul-17 10:32N 36°48' W 008°21'0 0.1
2014-Jul-17 09:19N 36°48' W 008°21'2 3.0
2014-Jul-17 08:33N 36°48' W 008°19'3 2.9
2014-Jul-17 07:34N 36°48' W 008°15'3 2.9
2014-Jul-17 06:34N 36°48' W 008°11'3 3.1
2014-Jul-17 05:33N 36°48' W 008°07'1 1.3
2014-Jul-17 04:34N 36°47' W 008°06'3 2.9
2014-Jul-17 03:33N 36°48' W 008°03'3 2.9
2014-Jul-17 02:33N 36°49' W 007°59'1 0.6
2014-Jul-17 00:23N 36°50' W 007°58'8 2.9
2014-Jul-16 21:33N 36°48' W 008°08'14 2.8
2014-Jul-16 16:30N 36°48' W 008°26'3 3.0
2014-Jul-16 15:33N 36°49' W 008°29'2 2.4
2014-Jul-16 14:33N 36°50' W 008°32'1 1.2
2014-Jul-16 13:34N 36°51' W 008°31'3 2.7
2014-Jul-16 12:33N 36°49' W 008°32'3 2.8
2014-Jul-16 11:34N 36°48' W 008°28'3 3.0
2014-Jul-16 10:32N 36°48' W 008°25'3 3.1
2014-Jul-16 09:33N 36°48' W 008°21'3 3.0
2014-Jul-16 08:30N 36°48' W 008°17'3 2.3
2014-Jul-16 07:07N 36°48' W 008°13'2 3.1
2014-Jul-16 06:26N 36°48' W 008°10'3 2.9
2014-Jul-16 05:33N 36°48' W 008°07'3 2.8
2014-Jul-16 04:34N 36°49' W 008°04'3 3.0
2014-Jul-16 03:34N 36°49' W 008°00'3 3.4
2014-Jul-16 02:34N 36°50' W 007°56'1 1.2
2014-Jul-16 01:29N 36°50' W 007°57'3 3.0
2014-Jul-16 00:33N 36°49' W 008°01'3 2.9
2014-Jul-15 23:33N 36°48' W 008°04'3 2.9
2014-Jul-15 22:33N 36°48' W 008°08'3 2.9
2014-Jul-15 21:33N 36°47' W 008°11'3 2.9
2014-Jul-15 20:28N 36°48' W 008°15'6 2.9
2014-Jul-15 18:19N 36°48' W 008°23'2 2.8
2014-Jul-15 17:32N 36°48' W 008°26'3 2.9
2014-Jul-15 16:34N 36°49' W 008°29'3 2.5
2014-Jul-15 15:33N 36°50' W 008°32'1 0.6
2014-Jul-15 14:33N 36°49' W 008°32'3 2.9
2014-Jul-15 13:33N 36°49' W 008°28'4 3.0
2014-Jul-15 12:19N 36°48' W 008°24'2 3.0
2014-Jul-15 11:33N 36°48' W 008°21'4 2.0
2014-Jul-15 09:30N 36°48' W 008°16'2 2.6
2014-Jul-15 08:33N 36°48' W 008°13'3 3.1
2014-Jul-15 07:34N 36°49' W 008°09'3 3.1
2014-Jul-15 06:33N 36°49' W 008°05'3 3.0
2014-Jul-15 05:34N 36°50' W 008°02'6 5.4
2014-Jul-15 04:30N 36°52' W 007°55'2010.0
2014-Jul-15 02:31N 37°03' W 007°34'  
Track history (hours):
 
Tides and Currents Weather Stations Pressure Air Temp Water Temp Dewpoint Dewpoint Depression Visibility Wind Speed Wind Dir Waves Ship Positions

Pires Coelho

Last reported at 2014-Jul-24 22:26 UTC. Time now 2014-Jul-28 16:27 UTC.
Position N 37°08' W 008°32'.

Length 27 m.

Type: Ship. MMSI: 263236000.

Date/timePositionNaut miles runAvg speedWind from/ knotsBaromVisibWave heightAir tempDewpointWater temp
2014-Jul-24 22:26N 37°08' W 008°32'0 0.0
2014-Jul-24 21:32N 37°08' W 008°32'0 0.0
2014-Jul-24 20:30N 37°08' W 008°32'7 7.0
2014-Jul-24 19:33N 37°02' W 008°27'9 8.9
2014-Jul-24 18:33N 36°55' W 008°20'8 8.4
2014-Jul-24 17:33N 36°49' W 008°14'2 1.7
2014-Jul-24 16:33N 36°49' W 008°12'3 2.9
2014-Jul-24 15:33N 36°49' W 008°09'4 3.0
2014-Jul-24 14:18N 36°50' W 008°04'3 1.4
2014-Jul-24 12:20N 36°49' W 008°07'2 2.9
2014-Jul-24 11:33N 36°49' W 008°10'4 3.0
2014-Jul-24 10:03N 36°48' W 008°16'3 3.1
2014-Jul-24 09:13N 36°48' W 008°19'1 2.3
2014-Jul-24 08:34N 36°48' W 008°17'3 3.1
2014-Jul-24 07:33N 36°48' W 008°13'3 3.1
2014-Jul-24 06:34N 36°49' W 008°09'3 3.1
2014-Jul-24 05:32N 36°49' W 008°05'1 0.9
2014-Jul-24 04:31N 36°48' W 008°05'3 3.1
2014-Jul-24 03:33N 36°49' W 008°02'3 3.0
2014-Jul-24 02:29N 36°50' W 007°58'5 1.6
2014-Jul-23 23:33N 36°49' W 008°04'3 2.9
2014-Jul-23 22:21N 36°48' W 008°08'3 2.9
2014-Jul-23 21:16N 36°47' W 008°12'3 3.6
2014-Jul-23 20:33N 36°48' W 008°15'2 1.9
2014-Jul-23 19:33N 36°48' W 008°12'3 3.0
2014-Jul-23 18:34N 36°49' W 008°09'1 1.1
2014-Jul-23 17:32N 36°49' W 008°07'3 2.9
2014-Jul-23 16:34N 36°48' W 008°11'3 3.0
2014-Jul-23 15:34N 36°48' W 008°14'3 3.1
2014-Jul-23 14:31N 36°48' W 008°18'6 2.6
2014-Jul-23 12:17N 36°49' W 008°26'2 3.0
2014-Jul-23 11:33N 36°49' W 008°28'5 4.1
2014-Jul-23 10:21N 36°49' W 008°34'2 2.1
2014-Jul-23 09:32N 36°49' W 008°36'3 2.9
2014-Jul-23 08:33N 36°49' W 008°40'3 2.9
2014-Jul-23 07:32N 36°49' W 008°44'4 2.9
2014-Jul-23 06:18N 36°50' W 008°48'11 6.6
2014-Jul-23 04:33N 36°49' W 009°02'9 4.2
2014-Jul-23 02:20N 36°49' W 009°14'2 2.9
2014-Jul-23 01:33N 36°52' W 009°14'3 2.8
2014-Jul-23 00:33N 36°54' W 009°12'3 2.9
2014-Jul-22 23:33N 36°57' W 009°10'3 2.6
2014-Jul-22 22:27N 36°60' W 009°10'19 8.7
2014-Jul-22 20:13N 37°19' W 009°10'1 1.6
2014-Jul-22 19:33N 37°20' W 009°10'3 2.7
2014-Jul-22 18:30N 37°23' W 009°09'3 2.9
2014-Jul-22 17:33N 37°26' W 009°10'3 2.7
2014-Jul-22 16:33N 37°28' W 009°09'0 0.1
2014-Jul-22 15:33N 37°28' W 009°09'3 2.8
2014-Jul-22 14:31N 37°25' W 009°09'3 3.1
2014-Jul-22 13:33N 37°22' W 009°09'2 2.0
2014-Jul-22 12:33N 37°24' W 009°10'3 2.8
2014-Jul-22 11:28N 37°27' W 009°09'1 1.4
2014-Jul-22 10:32N 37°28' W 009°08'2 2.0
2014-Jul-22 09:33N 37°27' W 009°07'3 2.8
2014-Jul-22 08:33N 37°24' W 009°08'1 1.0
2014-Jul-22 07:33N 37°25' W 009°08'3 2.9
2014-Jul-22 06:33N 37°28' W 009°08'6 6.1
2014-Jul-22 05:33N 37°34' W 009°07'10 9.6
2014-Jul-22 04:32N 37°43' W 009°07'9 9.4
2014-Jul-22 03:33N 37°52' W 009°07'9 9.1
2014-Jul-22 02:33N 38°02' W 009°07'9 9.3
2014-Jul-22 01:33N 38°11' W 009°06'10 9.6
2014-Jul-22 00:33N 38°21' W 009°06'6 5.4
2014-Jul-21 23:27N 38°26' W 009°07'0 0.0
2014-Jul-21 22:32N 38°26' W 009°07'5 5.3
2014-Jul-21 21:33N 38°24' W 009°13'9 9.5
2014-Jul-21 20:33N 38°29' W 009°23'3 9.5
2014-Jul-21 20:13N 38°31' W 009°27'6 9.6
2014-Jul-21 19:33N 38°34' W 009°33'2 2.1
2014-Jul-21 18:33N 38°35' W 009°36'3 2.8
2014-Jul-21 17:33N 38°33' W 009°33'3 2.9
2014-Jul-21 16:33N 38°32' W 009°30'1 1.4
2014-Jul-21 15:33N 38°33' W 009°31'3 3.0
2014-Jul-21 14:33N 38°34' W 009°34'3 3.0
2014-Jul-21 13:34N 38°37' W 009°37'28 0.7
2014-Jul-20 00:33N 38°10' W 009°27'10 9.8
2014-Jul-19 23:33N 38°01' W 009°23'10 9.7
2014-Jul-19 22:33N 37°52' W 009°20'9 9.5
2014-Jul-19 21:33N 37°42' W 009°18'9 8.9
2014-Jul-19 20:33N 37°34' W 009°14'42 3.5
2014-Jul-19 08:32N 37°08' W 008°32'0 0.0
2014-Jul-19 07:32N 37°08' W 008°32'0 0.0
2014-Jul-19 06:32N 37°08' W 008°32'0 0.0
2014-Jul-19 05:23N 37°08' W 008°32'0 0.0
2014-Jul-19 04:20N 37°08' W 008°32'0 0.0
2014-Jul-19 03:26N 37°08' W 008°32'0 0.0
2014-Jul-19 02:25N 37°08' W 008°32'0 0.0
2014-Jul-19 01:25N 37°08' W 008°32'0 0.0
2014-Jul-19 00:25N 37°08' W 008°32'0 0.0
2014-Jul-18 23:33N 37°08' W 008°32'0 0.0
2014-Jul-18 22:28N 37°08' W 008°32'0 0.0
2014-Jul-18 21:29N 37°08' W 008°32'0 0.0
2014-Jul-18 20:30N 37°08' W 008°32'0 0.0
2014-Jul-18 19:26N 37°08' W 008°32'0 0.0
2014-Jul-18 18:29N 37°08' W 008°32'0 0.0
2014-Jul-18 17:25N 37°08' W 008°32'0 0.0
2014-Jul-18 16:26N 37°08' W 008°32'0 0.2
2014-Jul-18 15:33N 37°08' W 008°32'0 0.0
2014-Jul-18 14:30N 37°08' W 008°32'0 0.0
2014-Jul-18 13:33N 37°08' W 008°32'0 0.0
2014-Jul-18 12:27N 37°08' W 008°32'0 0.0
2014-Jul-18 10:29N 37°08' W 008°32'0 0.0
2014-Jul-18 09:33N 37°08' W 008°32'0 0.0
2014-Jul-18 08:33N 37°08' W 008°32'0 0.0
2014-Jul-18 07:32N 37°08' W 008°32'0 0.1
2014-Jul-18 06:27N 37°08' W 008°32'0 0.0
2014-Jul-18 05:31N 37°08' W 008°32'0 0.0
2014-Jul-18 04:31N 37°08' W 008°32'0 0.0
2014-Jul-18 03:32N 37°08' W 008°32'0 0.0
2014-Jul-18 02:24N 37°08' W 008°32'0 0.0
2014-Jul-18 01:31N 37°08' W 008°32'0 0.0
2014-Jul-18 00:28N 37°08' W 008°32'0 0.0
2014-Jul-17 23:27N 37°08' W 008°32'0 0.0
2014-Jul-17 22:32N 37°08' W 008°32'0 0.0
2014-Jul-17 21:33N 37°08' W 008°32'0 0.0
2014-Jul-17 20:29N 37°08' W 008°32'1 1.4
2014-Jul-17 19:33N 37°07' W 008°32'10 9.9
2014-Jul-17 18:33N 36°57' W 008°31'8 7.8
2014-Jul-17 17:33N 36°49' W 008°32'3 2.8
2014-Jul-17 16:32N 36°52' W 008°31'1 0.6
2014-Jul-17 15:33N 36°52' W 008°30'3 2.8
2014-Jul-17 14:34N 36°50' W 008°32'2 2.5
2014-Jul-17 13:34N 36°49' W 008°29'2 1.8
2014-Jul-17 12:31N 36°48' W 008°27'2 1.7
2014-Jul-17 11:34N 36°48' W 008°25'3 2.9
2014-Jul-17 10:32N 36°48' W 008°21'0 0.1
2014-Jul-17 09:19N 36°48' W 008°21'2 3.0
2014-Jul-17 08:33N 36°48' W 008°19'3 2.9
2014-Jul-17 07:34N 36°48' W 008°15'3 2.9
2014-Jul-17 06:34N 36°48' W 008°11'3 3.1
2014-Jul-17 05:33N 36°48' W 008°07'1 1.3
2014-Jul-17 04:34N 36°47' W 008°06'3 2.9
2014-Jul-17 03:33N 36°48' W 008°03'3 2.9
2014-Jul-17 02:33N 36°49' W 007°59'1 0.6
2014-Jul-17 00:23N 36°50' W 007°58'8 2.9
2014-Jul-16 21:33N 36°48' W 008°08'14 2.8
2014-Jul-16 16:30N 36°48' W 008°26'3 3.0
2014-Jul-16 15:33N 36°49' W 008°29'2 2.4
2014-Jul-16 14:33N 36°50' W 008°32'1 1.2
2014-Jul-16 13:34N 36°51' W 008°31'3 2.7
2014-Jul-16 12:33N 36°49' W 008°32'3 2.8
2014-Jul-16 11:34N 36°48' W 008°28'3 3.0
2014-Jul-16 10:32N 36°48' W 008°25'3 3.1
2014-Jul-16 09:33N 36°48' W 008°21'3 3.0
2014-Jul-16 08:30N 36°48' W 008°17'3 2.3
2014-Jul-16 07:07N 36°48' W 008°13'2 3.1
2014-Jul-16 06:26N 36°48' W 008°10'3 2.9
2014-Jul-16 05:33N 36°48' W 008°07'3 2.8
2014-Jul-16 04:34N 36°49' W 008°04'3 3.0
2014-Jul-16 03:34N 36°49' W 008°00'3 3.4
2014-Jul-16 02:34N 36°50' W 007°56'1 1.2
2014-Jul-16 01:29N 36°50' W 007°57'3 3.0
2014-Jul-16 00:33N 36°49' W 008°01'3 2.9
2014-Jul-15 23:33N 36°48' W 008°04'3 2.9
2014-Jul-15 22:33N 36°48' W 008°08'3 2.9
2014-Jul-15 21:33N 36°47' W 008°11'3 2.9
2014-Jul-15 20:28N 36°48' W 008°15'6 2.9
2014-Jul-15 18:19N 36°48' W 008°23'2 2.8
2014-Jul-15 17:32N 36°48' W 008°26'3 2.9
2014-Jul-15 16:34N 36°49' W 008°29'3 2.5
2014-Jul-15 15:33N 36°50' W 008°32'1 0.6
2014-Jul-15 14:33N 36°49' W 008°32'3 2.9
2014-Jul-15 13:33N 36°49' W 008°28'4 3.0
2014-Jul-15 12:19N 36°48' W 008°24'2 3.0
2014-Jul-15 11:33N 36°48' W 008°21'4 2.0
2014-Jul-15 09:30N 36°48' W 008°16'2 2.6
2014-Jul-15 08:33N 36°48' W 008°13'3 3.1
2014-Jul-15 07:34N 36°49' W 008°09'3 3.1
2014-Jul-15 06:33N 36°49' W 008°05'3 3.0
2014-Jul-15 05:34N 36°50' W 008°02'6 5.4
2014-Jul-15 04:30N 36°52' W 007°55'2010.0
2014-Jul-15 02:31N 37°03' W 007°34'  

Dump ship's entire track history